21°C Temp
17°C Dewpoint
78% Humidity
Temperature
8 KM/H
5 MPH
4 KTS
180°
Due South

Wind Speed
Clear
Conditions
Pressure 1019.92 (hPa) - 30.12 (in)
Visibility 6.2 (mi) - 10.0 (km)

Current Conditions
LIMJ
Location 7(km)
Metar :LIMJ 180850Z 18004KT CAVOK 21/17 Q1020
Wed 18th May 10:50 am

Airport
  Metar Aviation API Data Provided by https://www.checkwx.com/ PHP scripts by weather34.com ©2022